createdAt,value
2022-12-14T00:02:30.207Z,73.13
2022-12-14T00:05:02.287Z,72.53
2022-12-14T00:07:34.286Z,73.63
2022-12-14T00:10:06.726Z,73.25
2022-12-14T00:12:38.698Z,71.71
2022-12-14T00:15:10.885Z,72.96
2022-12-14T00:17:42.870Z,72.58
2022-12-14T00:20:15.317Z,72.98
2022-12-14T00:22:47.626Z,72.76
2022-12-14T00:25:19.735Z,72.89
2022-12-14T00:27:51.877Z,73.61
2022-12-14T00:30:23.853Z,72.86
2022-12-14T00:32:55.830Z,72.68
2022-12-14T00:35:27.781Z,73.08
2022-12-14T00:37:59.766Z,72.82
2022-12-14T00:40:31.696Z,72.56
2022-12-14T00:43:04.362Z,73.96
2022-12-14T00:45:36.315Z,73.17
2022-12-14T00:48:08.450Z,72.94
2022-12-14T00:50:41.264Z,72.94
2022-12-14T00:53:13.340Z,72.39
2022-12-14T00:55:49.256Z,72.28
2022-12-14T00:58:24.311Z,72.63
2022-12-14T01:01:08.695Z,72.21
2022-12-14T01:03:41.038Z,72.47
2022-12-14T01:06:18.547Z,73.01
2022-12-14T01:08:50.753Z,72.99
2022-12-14T01:11:22.711Z,72.63
2022-12-14T01:13:56.176Z,72.57
2022-12-14T01:16:28.389Z,72.26
2022-12-14T01:19:01.543Z,72.14
2022-12-14T01:21:34.047Z,72.49
2022-12-14T01:24:07.490Z,72.40
2022-12-14T04:54:02.189Z,72.76
2022-12-14T04:56:42.873Z,72.06
2022-12-14T04:59:15.072Z,71.82
2022-12-14T05:01:52.814Z,70.76
2022-12-14T05:04:33.455Z,71.07
2022-12-14T05:07:20.372Z,70.49
2022-12-14T05:10:10.644Z,70.20
2022-12-14T05:13:01.073Z,69.69
2022-12-14T05:15:49.711Z,69.66
2022-12-14T05:18:22.398Z,69.00
2022-12-14T05:20:54.394Z,69.58
2022-12-14T05:23:26.643Z,69.40
2022-12-14T05:25:58.823Z,70.22
2022-12-14T05:28:30.770Z,69.72
2022-12-14T05:31:02.854Z,68.64
2022-12-14T05:33:35.031Z,69.21
2022-12-14T05:36:07.445Z,69.84
2022-12-14T05:38:39.351Z,69.30
2022-12-14T05:41:11.337Z,68.40
2022-12-14T05:43:43.328Z,68.17
2022-12-14T05:46:15.427Z,68.54
2022-12-14T05:48:49.434Z,68.22
2022-12-14T05:51:21.778Z,68.95
2022-12-14T05:53:53.899Z,68.61
2022-12-14T05:56:26.057Z,68.80
2022-12-14T05:58:58.307Z,68.64
2022-12-14T06:01:30.536Z,68.05
2022-12-14T06:04:02.657Z,68.36
2022-12-14T06:06:34.744Z,68.47
2022-12-14T06:09:08.005Z,69.26
2022-12-14T06:11:41.496Z,68.96
2022-12-14T06:14:14.219Z,69.61
2022-12-14T06:16:47.401Z,69.74
2022-12-14T06:19:19.426Z,69.37
2022-12-14T06:21:51.654Z,69.03
2022-12-14T06:24:23.615Z,69.22
2022-12-14T06:26:55.558Z,69.35
2022-12-14T06:29:28.240Z,69.21
2022-12-14T06:32:01.748Z,68.70
2022-12-14T06:34:38.540Z,68.14
2022-12-14T06:37:12.068Z,68.40
2022-12-14T06:39:45.672Z,68.16
2022-12-14T06:42:24.714Z,68.39
2022-12-14T06:44:56.598Z,68.24
2022-12-14T06:47:28.761Z,72.04
2022-12-14T06:50:00.701Z,69.43
2022-12-14T06:52:32.713Z,69.28
2022-12-14T06:55:05.359Z,68.40
2022-12-14T06:57:37.318Z,68.61
2022-12-14T07:00:13.629Z,69.14
2022-12-14T07:02:45.811Z,68.37
2022-12-14T07:05:17.972Z,67.91
2022-12-14T07:07:50.060Z,68.77
2022-12-14T07:10:22.039Z,68.55
2022-12-14T07:12:54.025Z,67.96
2022-12-14T07:15:26.007Z,67.89
2022-12-14T07:17:58.291Z,68.28
2022-12-14T07:20:30.167Z,68.20
2022-12-14T07:23:02.286Z,69.12
2022-12-14T07:25:34.276Z,69.66
2022-12-14T07:28:06.521Z,69.78
2022-12-14T07:30:38.472Z,69.74
2022-12-14T07:33:10.659Z,69.58
2022-12-14T07:35:42.635Z,69.75
2022-12-14T07:38:14.726Z,69.27
2022-12-14T07:40:46.893Z,69.25
2022-12-14T07:43:19.220Z,69.00
2022-12-14T07:45:51.201Z,69.23
2022-12-14T07:48:23.188Z,69.34
2022-12-14T07:50:55.593Z,69.38
2022-12-14T07:53:27.961Z,70.13
2022-12-14T07:56:05.334Z,69.68
2022-12-14T07:58:37.565Z,69.61
2022-12-14T08:01:09.618Z,69.67
2022-12-14T08:03:43.781Z,69.07
2022-12-14T08:06:17.241Z,69.04
2022-12-14T08:08:50.365Z,68.89
2022-12-14T08:11:29.316Z,68.87
2022-12-14T08:14:03.737Z,68.93
2022-12-14T08:16:35.852Z,68.55
2022-12-14T08:19:07.884Z,68.73
2022-12-14T08:21:41.044Z,68.84
2022-12-14T08:24:14.250Z,68.51
2022-12-14T08:26:49.117Z,68.74
2022-12-14T08:29:22.713Z,68.55
2022-12-14T08:31:58.509Z,68.21
2022-12-14T08:34:30.685Z,68.33
2022-12-14T08:37:02.678Z,68.65
2022-12-14T08:39:34.706Z,68.57
2022-12-14T08:42:06.668Z,68.30
2022-12-14T08:44:38.609Z,68.74
2022-12-14T08:47:10.572Z,68.35
2022-12-14T08:49:42.574Z,68.08
2022-12-14T08:52:14.514Z,68.00
2022-12-14T08:54:46.635Z,67.81
2022-12-14T08:57:18.507Z,67.90
2022-12-14T09:00:05.766Z,67.78
2022-12-14T09:02:38.505Z,68.07
2022-12-14T09:05:11.046Z,67.91
2022-12-14T09:07:43.038Z,68.21
2022-12-14T09:10:15.766Z,68.44
2022-12-14T09:12:47.867Z,68.91
2022-12-14T09:15:19.904Z,68.61
2022-12-14T09:17:51.867Z,68.22
2022-12-14T09:20:23.943Z,68.45
2022-12-14T09:22:56.146Z,68.68
2022-12-14T09:25:28.130Z,67.99
2022-12-14T09:28:00.039Z,68.15
2022-12-14T09:30:31.978Z,68.08
2022-12-14T09:33:04.027Z,68.31
2022-12-14T09:35:35.992Z,68.01
2022-12-14T09:38:08.024Z,68.68
2022-12-14T09:40:43.061Z,68.55
2022-12-14T09:43:43.759Z,67.72
2022-12-14T09:46:35.585Z,67.60
2022-12-14T09:49:34.770Z,67.44
2022-12-14T09:52:13.418Z,67.28
2022-12-14T09:54:49.739Z,67.14
2022-12-14T09:57:25.260Z,67.01
2022-12-14T09:59:57.256Z,66.62
2022-12-14T10:02:46.765Z,66.85
2022-12-14T10:05:34.179Z,66.22
2022-12-14T10:08:45.346Z,65.94
2022-12-14T10:11:32.999Z,66.39
2022-12-14T10:14:31.179Z,65.90
2022-12-14T10:17:30.326Z,65.73
2022-12-14T10:20:17.600Z,65.81
2022-12-14T10:22:52.992Z,66.52
2022-12-14T10:25:37.628Z,66.33
2022-12-14T10:28:21.630Z,66.30
2022-12-14T10:30:58.599Z,67.08
2022-12-14T10:33:31.931Z,66.53
2022-12-14T10:36:26.124Z,67.05
2022-12-14T10:39:02.628Z,66.33
2022-12-14T10:41:43.320Z,65.74
2022-12-14T10:45:09.615Z,65.24
2022-12-14T10:47:52.562Z,64.80
2022-12-14T10:50:50.054Z,65.51
2022-12-14T10:53:33.488Z,64.82
2022-12-14T10:56:25.817Z,64.48
2022-12-14T10:59:26.780Z,65.63
2022-12-14T11:02:04.689Z,65.66
2022-12-14T11:04:45.029Z,65.45
2022-12-14T11:07:19.353Z,65.49
2022-12-14T11:09:51.389Z,65.44
2022-12-14T11:12:28.374Z,65.07
2022-12-14T11:15:03.466Z,65.19
2022-12-14T11:17:43.662Z,64.93
2022-12-14T11:20:21.223Z,65.52
2022-12-14T11:22:59.438Z,65.37
2022-12-14T11:25:43.495Z,65.50
2022-12-14T11:28:15.442Z,65.19
2022-12-14T11:31:33.057Z,64.91
2022-12-14T11:34:31.020Z,65.30
2022-12-14T11:37:25.758Z,65.86
2022-12-14T11:40:05.276Z,65.76
2022-12-14T11:42:37.574Z,65.58
2022-12-14T11:45:31.906Z,66.10
2022-12-14T11:48:16.121Z,66.00
2022-12-14T11:50:49.845Z,66.19
2022-12-14T11:53:23.519Z,65.90
2022-12-14T11:55:59.688Z,65.48
2022-12-14T11:58:54.619Z,65.77
2022-12-14T12:01:27.403Z,65.71
2022-12-14T12:04:00.895Z,66.28
2022-12-14T12:06:33.164Z,66.15
2022-12-14T12:09:30.482Z,66.19
2022-12-14T12:12:02.443Z,66.18
2022-12-14T12:14:38.868Z,66.18
2022-12-14T12:17:27.203Z,66.06
2022-12-14T12:19:59.288Z,65.84
2022-12-14T12:22:32.220Z,66.35
2022-12-14T12:28:12.669Z,66.22
2022-12-14T12:30:51.318Z,66.47
2022-12-14T12:33:30.430Z,66.57
2022-12-14T12:36:05.924Z,66.56
2022-12-14T12:38:49.770Z,66.56
2022-12-14T12:41:26.229Z,66.76
2022-12-14T12:44:49.756Z,67.01
2022-12-14T12:47:41.418Z,66.71
2022-12-14T12:50:21.932Z,66.83
2022-12-14T12:53:02.701Z,66.73
2022-12-14T12:55:42.389Z,66.78
2022-12-14T12:58:27.936Z,66.63
2022-12-14T13:01:05.043Z,67.24
2022-12-14T13:03:46.141Z,67.24
2022-12-14T13:06:24.136Z,67.29
2022-12-14T13:09:02.393Z,67.57
2022-12-14T13:11:39.638Z,67.70
2022-12-14T13:14:29.335Z,67.95
2022-12-14T13:17:06.106Z,67.75
2022-12-14T13:19:54.761Z,67.99
2022-12-14T13:22:30.210Z,67.88
2022-12-14T13:25:57.757Z,67.96
2022-12-14T13:28:47.793Z,68.15
2022-12-14T13:31:29.024Z,68.21
2022-12-14T13:34:23.893Z,68.32
2022-12-14T13:37:23.323Z,68.37
2022-12-14T13:40:13.981Z,68.48
2022-12-14T13:42:53.245Z,68.76
2022-12-14T13:45:32.808Z,68.88
2022-12-14T13:48:09.478Z,68.81
2022-12-14T13:50:56.081Z,68.58
2022-12-14T13:53:35.381Z,69.04
2022-12-14T13:56:08.934Z,69.28
2022-12-14T13:58:43.525Z,69.17
2022-12-14T14:01:54.811Z,69.00
2022-12-14T14:04:31.804Z,69.08
2022-12-14T14:07:22.697Z,69.68
2022-12-14T14:10:05.033Z,69.60
2022-12-14T14:12:39.693Z,69.61
2022-12-14T14:15:32.935Z,70.07
2022-12-14T14:18:16.079Z,70.17
2022-12-14T14:21:14.213Z,70.64
2022-12-14T14:23:59.744Z,70.81
2022-12-14T14:26:34.461Z,71.29
2022-12-14T14:29:23.846Z,71.78
2022-12-14T14:31:57.406Z,72.01
2022-12-14T14:34:45.137Z,72.65
2022-12-14T14:37:20.203Z,72.36
2022-12-14T14:40:18.756Z,72.20
2022-12-14T14:43:06.773Z,72.58
2022-12-14T14:45:50.706Z,72.37
2022-12-14T14:48:34.761Z,72.39
2022-12-14T14:51:21.303Z,72.82
2022-12-14T14:55:10.698Z,72.44
2022-12-14T14:57:38.784Z,72.80
2022-12-14T15:00:11.590Z,72.73
2022-12-14T15:02:44.703Z,72.83
2022-12-14T15:08:29.767Z,72.76
2022-12-14T15:11:12.342Z,73.07
2022-12-14T15:13:51.998Z,73.51
2022-12-14T15:16:29.776Z,73.34
2022-12-14T15:19:26.814Z,73.92
2022-12-14T15:22:14.448Z,73.81
2022-12-14T15:24:49.959Z,73.83
2022-12-14T15:27:32.477Z,73.92
2022-12-14T15:30:13.598Z,73.65
2022-12-14T15:32:59.602Z,73.34
2022-12-14T15:35:38.469Z,73.35
2022-12-14T15:38:20.897Z,73.32
2022-12-14T15:41:13.335Z,72.87
2022-12-14T15:43:47.109Z,72.54
2022-12-14T15:46:32.149Z,72.70
2022-12-14T15:49:09.187Z,72.57
2022-12-14T15:51:43.941Z,72.06
2022-12-14T15:54:21.390Z,72.39
2022-12-14T15:57:00.813Z,71.70
2022-12-14T15:59:36.181Z,71.79
2022-12-14T16:02:38.430Z,71.62
2022-12-14T16:05:17.263Z,71.60
2022-12-14T16:07:54.552Z,71.80
2022-12-14T16:10:35.064Z,71.47
2022-12-14T16:13:15.228Z,71.29
2022-12-14T16:15:47.712Z,71.33
2022-12-14T16:18:22.116Z,71.45
2022-12-14T16:21:01.021Z,71.11
2022-12-14T16:23:39.244Z,71.40
2022-12-14T16:26:15.440Z,71.09
2022-12-14T16:28:48.040Z,70.89
2022-12-14T16:31:22.709Z,71.16
2022-12-14T16:34:10.037Z,71.42
2022-12-14T16:36:48.180Z,71.63
2022-12-14T16:39:40.126Z,71.15
2022-12-14T16:42:25.514Z,71.25
2022-12-14T16:44:57.637Z,71.68
2022-12-14T16:47:35.312Z,71.26
2022-12-14T16:53:25.531Z,71.42
2022-12-14T16:56:15.571Z,71.33
2022-12-14T16:58:59.354Z,71.02
2022-12-14T17:01:45.950Z,70.84
2022-12-14T17:04:20.164Z,71.82
2022-12-14T17:06:54.301Z,71.57
2022-12-14T17:09:29.298Z,71.20
2022-12-14T17:12:10.213Z,72.01
2022-12-14T17:14:49.061Z,72.04
2022-12-14T17:17:33.748Z,71.88
2022-12-14T17:20:13.569Z,71.49
2022-12-14T17:22:49.681Z,71.39
2022-12-14T17:25:21.946Z,71.67
2022-12-14T17:27:54.634Z,71.29
2022-12-14T17:30:26.839Z,72.18
2022-12-14T17:32:59.023Z,71.99
2022-12-14T17:35:32.590Z,71.87
2022-12-14T17:38:13.453Z,71.40
2022-12-14T17:40:47.094Z,71.75
2022-12-14T17:43:22.495Z,71.63
2022-12-14T17:45:54.878Z,71.72
2022-12-14T17:48:28.623Z,71.72
2022-12-14T17:51:01.639Z,71.49
2022-12-14T17:53:34.971Z,71.34
2022-12-14T17:56:07.114Z,71.13
2022-12-14T17:58:39.239Z,71.39
2022-12-14T18:01:16.272Z,72.01
2022-12-14T18:03:48.900Z,71.91
2022-12-14T18:06:20.879Z,71.27
2022-12-14T18:08:52.870Z,71.34
2022-12-14T18:11:27.334Z,70.86
2022-12-14T18:13:59.675Z,70.87
2022-12-14T18:16:31.739Z,70.77
2022-12-14T18:19:03.882Z,71.31
2022-12-14T18:21:35.886Z,71.20
2022-12-14T18:24:12.982Z,71.13
2022-12-14T18:26:46.292Z,70.85
2022-12-14T18:29:19.975Z,70.86
2022-12-14T18:31:52.527Z,70.83
2022-12-14T18:34:24.779Z,70.87
2022-12-14T18:36:56.782Z,71.00
2022-12-14T18:39:28.784Z,71.45
2022-12-14T18:42:00.652Z,71.19
2022-12-14T18:44:32.642Z,71.50
2022-12-14T18:47:20.753Z,71.16
2022-12-14T18:49:56.693Z,70.69
2022-12-14T18:52:28.881Z,70.99
2022-12-14T18:55:01.021Z,70.69
2022-12-14T18:57:33.017Z,70.64
2022-12-14T19:00:05.480Z,70.38
2022-12-14T19:02:37.612Z,70.52
2022-12-14T19:05:10.740Z,70.30
2022-12-14T19:07:43.738Z,70.40
2022-12-14T19:10:21.773Z,70.30
2022-12-14T19:12:54.218Z,70.02
2022-12-14T19:15:32.784Z,70.79
2022-12-14T19:18:04.855Z,70.79
2022-12-14T19:20:36.972Z,70.54
2022-12-14T19:23:15.722Z,70.58
2022-12-14T19:25:48.086Z,70.63
2022-12-14T19:28:32.056Z,70.15
2022-12-14T19:31:05.579Z,70.90
2022-12-14T19:33:38.086Z,70.25
2022-12-14T19:36:10.592Z,70.62
2022-12-14T19:38:42.603Z,70.59
2022-12-14T19:41:17.950Z,71.77
2022-12-14T19:43:50.198Z,71.77
2022-12-14T19:46:24.156Z,72.11
2022-12-14T19:48:57.770Z,72.29
2022-12-14T19:51:30.813Z,72.53
2022-12-14T19:54:04.235Z,72.69
2022-12-14T19:56:36.356Z,73.54
2022-12-14T19:59:08.357Z,73.98
2022-12-14T20:01:44.816Z,74.42
2022-12-14T20:04:19.980Z,74.71
2022-12-14T20:06:51.985Z,75.32
2022-12-14T20:09:24.167Z,75.73
2022-12-14T20:11:56.274Z,75.07
2022-12-14T20:14:28.440Z,75.77
2022-12-14T20:17:00.441Z,75.30
2022-12-14T20:19:32.446Z,75.18
2022-12-14T20:22:05.391Z,75.45
2022-12-14T20:24:38.572Z,75.34
2022-12-14T20:27:11.034Z,75.70
2022-12-14T20:29:43.504Z,76.25
2022-12-14T20:32:15.454Z,76.58
2022-12-14T20:34:47.415Z,76.56
2022-12-14T20:37:19.442Z,76.94
2022-12-14T20:39:51.398Z,76.41
2022-12-14T20:42:25.971Z,76.67
2022-12-14T20:45:01.324Z,76.81
2022-12-14T20:47:37.386Z,77.27
2022-12-14T20:50:12.250Z,76.86
2022-12-14T20:52:44.483Z,76.95
2022-12-14T20:55:21.410Z,77.00
2022-12-14T20:57:54.630Z,77.04
2022-12-14T21:00:26.997Z,77.40
2022-12-14T21:02:59.127Z,76.96
2022-12-14T21:05:31.125Z,76.92
2022-12-14T21:08:03.102Z,77.47
2022-12-14T21:10:35.830Z,77.89
2022-12-14T21:13:08.156Z,77.91
2022-12-14T21:15:40.186Z,78.16
2022-12-14T21:18:12.172Z,77.80
2022-12-14T21:20:44.757Z,78.24
2022-12-14T21:23:21.285Z,78.66
2022-12-14T21:25:53.291Z,78.47
2022-12-14T21:28:30.393Z,78.16
2022-12-14T21:31:05.748Z,77.93
2022-12-14T21:33:37.692Z,78.02
2022-12-14T21:36:10.426Z,78.08
2022-12-14T21:38:42.374Z,78.18
2022-12-14T21:41:32.682Z,78.20
2022-12-14T21:44:04.948Z,78.09
2022-12-14T21:46:37.499Z,78.25
2022-12-14T21:49:10.053Z,78.17
2022-12-14T21:51:42.209Z,78.18
2022-12-14T21:54:15.793Z,78.27
2022-12-14T21:57:06.552Z,78.34
2022-12-14T21:59:46.706Z,78.18
2022-12-14T22:02:25.004Z,78.07
2022-12-14T22:04:57.280Z,78.23
2022-12-14T22:07:31.749Z,78.68
2022-12-14T22:10:04.328Z,78.62
2022-12-14T22:12:36.289Z,78.24
2022-12-14T22:15:08.927Z,78.37
2022-12-14T22:17:40.894Z,78.45
2022-12-14T22:20:13.626Z,78.43
2022-12-14T22:22:45.627Z,78.78
2022-12-14T22:25:17.597Z,78.52
2022-12-14T22:27:49.636Z,78.36
2022-12-14T22:30:24.004Z,78.01
2022-12-14T22:32:59.125Z,78.29
2022-12-14T22:35:31.148Z,78.33
2022-12-14T22:38:03.127Z,78.45
2022-12-14T22:40:35.392Z,77.96
2022-12-14T22:43:07.334Z,77.71
2022-12-14T22:45:39.328Z,77.99
2022-12-14T22:48:11.273Z,77.86
2022-12-14T22:50:43.831Z,78.30
2022-12-14T22:53:15.841Z,78.28
2022-12-14T22:55:49.724Z,78.54
2022-12-14T22:58:23.050Z,78.54
2022-12-14T23:00:58.216Z,78.11
2022-12-14T23:03:30.783Z,78.18
2022-12-14T23:06:03.216Z,77.99
2022-12-14T23:08:35.221Z,77.90
2022-12-14T23:11:25.718Z,77.90
2022-12-14T23:14:16.524Z,78.29
2022-12-14T23:17:07.026Z,78.22
2022-12-14T23:20:04.248Z,78.17
2022-12-14T23:22:56.002Z,78.46
2022-12-14T23:25:46.764Z,78.40
2022-12-14T23:28:37.430Z,78.41
2022-12-14T23:31:28.231Z,78.37
2022-12-14T23:34:19.026Z,78.09
2022-12-14T23:37:10.504Z,78.32
2022-12-14T23:40:03.459Z,78.25
2022-12-14T23:42:54.031Z,78.23
2022-12-14T23:45:44.472Z,78.15
2022-12-14T23:48:35.105Z,78.15
2022-12-14T23:51:25.343Z,78.41
2022-12-14T23:54:15.985Z,78.27
2022-12-14T23:57:06.102Z,78.20
2022-12-14T23:59:56.721Z,78.08
